createdAt,value
2019-05-10T00:00:11.432Z,91.10
2019-05-10T00:08:57.785Z,90.90
2019-05-10T00:11:30.117Z,91.10
2019-05-10T00:14:15.067Z,91.40
2019-05-10T00:16:42.972Z,91.70
2019-05-10T00:19:10.667Z,91.40
2019-05-10T00:21:38.311Z,91.30
2019-05-10T00:24:05.985Z,91.40
2019-05-10T00:26:33.619Z,91.50
2019-05-10T00:29:01.378Z,90.80
2019-05-10T00:31:29.098Z,91.30
2019-05-10T00:33:56.758Z,91.60
2019-05-10T00:36:24.394Z,91.20
2019-05-10T00:38:52.063Z,91.50
2019-05-10T00:41:19.704Z,91.40
2019-05-10T00:43:47.397Z,91.10
2019-05-10T00:46:15.110Z,91.20
2019-05-10T00:48:42.799Z,91.50
2019-05-10T00:51:10.434Z,91.00
2019-05-10T00:53:38.075Z,90.90
2019-05-10T00:56:05.828Z,91.20
2019-05-10T00:58:33.455Z,90.80
2019-05-10T01:01:01.135Z,91.20
2019-05-10T01:03:28.774Z,90.80
2019-05-10T01:05:56.445Z,91.10
2019-05-10T01:08:24.089Z,91.70
2019-05-10T01:10:51.831Z,91.90
2019-05-10T01:13:19.475Z,92.30
2019-05-10T01:15:47.147Z,92.90
2019-05-10T01:18:14.795Z,91.90
2019-05-10T01:20:42.458Z,92.20
2019-05-10T01:23:10.104Z,92.10
2019-05-10T01:25:37.777Z,91.70
2019-05-10T01:28:05.714Z,91.90
2019-05-10T01:30:33.434Z,91.90
2019-05-10T01:33:01.084Z,91.80
2019-05-10T01:35:28.751Z,91.60
2019-05-10T01:37:56.395Z,91.40
2019-05-10T01:40:24.067Z,91.20
2019-05-10T01:42:51.710Z,91.30
2019-05-10T01:45:19.387Z,91.20
2019-05-10T01:47:47.392Z,91.20
2019-05-10T01:50:15.070Z,91.40
2019-05-10T01:52:42.715Z,91.10
2019-05-10T01:55:10.378Z,91.10
2019-05-10T01:57:38.023Z,91.40
2019-05-10T02:00:09.146Z,91.20
2019-05-10T02:02:36.875Z,91.00
2019-05-10T02:05:05.315Z,90.90
2019-05-10T02:07:32.955Z,91.10
2019-05-10T02:10:00.959Z,90.90
2019-05-10T02:12:28.610Z,90.80
2019-05-10T02:14:56.279Z,90.80
2019-05-10T02:17:23.920Z,90.50
2019-05-10T02:19:51.591Z,90.30
2019-05-10T02:22:19.230Z,90.40
2019-05-10T02:24:46.908Z,89.80
2019-05-10T02:27:14.619Z,89.80
2019-05-10T02:29:43.095Z,90.00
2019-05-10T02:32:10.736Z,90.10
2019-05-10T02:34:38.513Z,90.00
2019-05-10T02:37:06.203Z,90.30
2019-05-10T02:39:33.876Z,90.30
2019-05-10T02:42:01.549Z,90.60
2019-05-10T02:44:29.222Z,90.50
2019-05-10T02:46:57.030Z,90.40
2019-05-10T02:49:24.701Z,90.60
2019-05-10T02:51:52.353Z,90.70
2019-05-10T02:54:20.088Z,90.90
2019-05-10T02:56:48.091Z,91.10
2019-05-10T02:59:16.737Z,91.50
2019-05-10T03:01:45.048Z,92.40
2019-05-10T03:04:13.530Z,93.00
2019-05-10T03:06:42.167Z,92.80
2019-05-10T03:09:09.803Z,93.70
2019-05-10T03:11:41.782Z,94.20
2019-05-10T03:14:10.964Z,94.60
2019-05-10T03:16:39.491Z,94.90
2019-05-10T03:19:08.507Z,94.80
2019-05-10T03:21:37.716Z,95.10
2019-05-10T03:24:05.358Z,95.30
2019-05-10T03:26:49.555Z,95.60
2019-05-10T03:29:02.498Z,95.40
2019-05-10T03:31:30.204Z,95.50
2019-05-10T03:33:58.054Z,95.80
2019-05-10T03:36:25.793Z,95.30
2019-05-10T03:38:53.795Z,95.40
2019-05-10T03:41:21.843Z,95.60
2019-05-10T03:43:49.769Z,95.80
2019-05-10T03:46:17.527Z,95.40
2019-05-10T03:48:45.203Z,95.50
2019-05-10T03:51:12.840Z,95.60
2019-05-10T03:53:40.874Z,95.50
2019-05-10T03:56:08.512Z,95.70
2019-05-10T03:58:36.220Z,95.80
2019-05-10T04:01:04.236Z,96.00
2019-05-10T04:03:31.875Z,95.90
2019-05-10T04:05:59.547Z,96.20
2019-05-10T04:08:27.191Z,96.10
2019-05-10T04:10:54.859Z,96.20
2019-05-10T04:13:22.499Z,96.20
2019-05-10T04:15:51.807Z,96.30
2019-05-10T04:18:19.447Z,96.40
2019-05-10T04:20:47.133Z,96.40
2019-05-10T04:23:14.928Z,96.50
2019-05-10T04:25:42.599Z,96.60
2019-05-10T04:28:10.556Z,96.30
2019-05-10T04:30:38.228Z,95.90
2019-05-10T04:33:05.868Z,96.20
2019-05-10T04:35:33.539Z,95.90
2019-05-10T04:38:01.179Z,95.90
2019-05-10T04:40:28.845Z,95.80
2019-05-10T04:42:56.498Z,96.00
2019-05-10T04:45:24.167Z,96.20
2019-05-10T04:47:51.807Z,95.80
2019-05-10T04:50:19.543Z,95.60
2019-05-10T04:52:47.192Z,95.60
2019-05-10T04:55:15.151Z,95.60
2019-05-10T04:57:50.485Z,95.20
2019-05-10T05:00:12.324Z,95.30
2019-05-10T05:02:39.964Z,95.70
2019-05-10T05:05:07.895Z,95.40
2019-05-10T05:07:35.814Z,95.10
2019-05-10T05:10:04.752Z,95.10
2019-05-10T05:12:32.391Z,95.10
2019-05-10T05:15:00.060Z,95.00
2019-05-10T05:17:27.704Z,94.90
2019-05-10T05:19:55.375Z,94.70
2019-05-10T05:22:23.014Z,94.70
2019-05-10T05:24:55.188Z,94.80
2019-05-10T05:27:20.051Z,94.60
2019-05-10T05:29:47.703Z,94.70
2019-05-10T05:32:15.721Z,94.30
2019-05-10T05:34:43.354Z,94.30
2019-05-10T05:37:11.027Z,94.10
2019-05-10T05:39:38.687Z,94.00
2019-05-10T05:42:06.372Z,94.20
2019-05-10T05:44:34.091Z,94.30
2019-05-10T05:47:04.561Z,94.20
2019-05-10T05:49:31.130Z,94.20
2019-05-10T05:51:58.822Z,94.00
2019-05-10T05:54:26.455Z,94.10
2019-05-10T05:56:54.124Z,94.40
2019-05-10T05:59:23.615Z,94.10
2019-05-10T06:01:51.168Z,93.90
2019-05-10T06:04:18.810Z,93.80
2019-05-10T06:06:46.491Z,93.90
2019-05-10T06:09:14.132Z,93.80
2019-05-10T06:11:41.799Z,93.90
2019-05-10T06:14:12.601Z,93.80
2019-05-10T06:16:39.175Z,93.50
2019-05-10T06:19:06.819Z,93.40
2019-05-10T06:21:34.484Z,93.10
2019-05-10T06:24:07.496Z,92.80
2019-05-10T06:26:31.523Z,92.50
2019-05-10T06:29:03.861Z,92.30
2019-05-10T06:31:28.827Z,92.10
2019-05-10T06:33:56.535Z,91.30
2019-05-10T06:36:24.211Z,90.70
2019-05-10T06:38:51.883Z,91.00
2019-05-10T06:41:19.569Z,91.10
2019-05-10T06:43:51.704Z,90.50
2019-05-10T06:46:16.623Z,86.80
2019-05-10T06:48:44.282Z,88.70
2019-05-10T06:51:12.418Z,89.90
2019-05-10T06:53:42.298Z,90.50
2019-05-10T06:56:09.530Z,90.30
2019-05-10T06:58:38.529Z,90.20
2019-05-10T07:01:06.631Z,89.40
2019-05-10T07:03:34.304Z,89.60
2019-05-10T07:06:01.951Z,90.10
2019-05-10T07:08:43.351Z,88.00
2019-05-10T07:10:59.038Z,87.70
2019-05-10T07:13:26.983Z,88.20
2019-05-10T07:15:54.623Z,85.00
2019-05-10T07:18:24.113Z,82.20
2019-05-10T07:20:51.727Z,82.50
2019-05-10T07:23:19.394Z,84.60
2019-05-10T07:25:47.056Z,84.10
2019-05-10T07:28:17.635Z,83.80
2019-05-10T07:30:44.363Z,86.20
2019-05-10T07:33:12.041Z,86.50
2019-05-10T07:35:39.790Z,85.60
2019-05-10T07:38:07.586Z,87.10
2019-05-10T07:40:35.238Z,87.80
2019-05-10T07:43:02.903Z,88.40
2019-05-10T07:45:30.544Z,87.20
2019-05-10T07:48:02.312Z,87.70
2019-05-10T07:50:27.604Z,87.30
2019-05-10T07:52:55.371Z,87.90
2019-05-10T07:55:27.674Z,86.60
2019-05-10T07:57:52.407Z,87.50
2019-05-10T08:00:20.416Z,87.90
2019-05-10T08:02:52.756Z,88.90
2019-05-10T08:05:18.460Z,90.50
2019-05-10T08:07:46.384Z,91.30
2019-05-10T08:10:14.096Z,91.30
2019-05-10T08:12:45.660Z,91.30
2019-05-10T08:15:11.764Z,91.20
2019-05-10T08:17:43.258Z,90.00
2019-05-10T08:20:14.992Z,90.10
2019-05-10T08:22:41.560Z,89.20
2019-05-10T08:25:07.919Z,89.40
2019-05-10T08:27:35.583Z,89.00
2019-05-10T08:30:20.649Z,87.70
2019-05-10T08:32:34.892Z,86.10
2019-05-10T08:35:05.472Z,86.30
2019-05-10T08:37:37.017Z,85.10
2019-05-10T08:40:03.120Z,83.50
2019-05-10T08:42:43.888Z,84.30
2019-05-10T08:45:05.458Z,83.10
2019-05-10T08:47:32.160Z,84.10
2019-05-10T08:50:12.265Z,83.30
2019-05-10T08:52:31.759Z,83.10
2019-05-10T08:54:57.979Z,83.30
2019-05-10T09:00:12.998Z,81.50
2019-05-10T09:02:42.686Z,82.80
2019-05-10T09:05:12.449Z,81.60
2019-05-10T09:07:40.156Z,79.20
2019-05-10T09:10:09.731Z,77.90
2019-05-10T09:12:44.251Z,78.90
2019-05-10T09:15:10.316Z,70.60
2019-05-10T09:17:36.591Z,77.10
2019-05-10T09:20:05.686Z,74.60
2019-05-10T09:22:38.431Z,70.00
2019-05-10T09:25:03.028Z,72.20
2019-05-10T09:27:33.283Z,72.10
2019-05-10T09:30:02.773Z,73.30
2019-05-10T09:32:31.419Z,73.00
2019-05-10T09:34:59.621Z,72.80
2019-05-10T09:37:28.449Z,71.10
2019-05-10T09:40:08.108Z,72.30
2019-05-10T09:42:33.100Z,71.40
2019-05-10T09:44:55.168Z,72.10
2019-05-10T09:47:22.815Z,71.60
2019-05-10T09:49:54.064Z,70.10
2019-05-10T09:52:20.119Z,70.30
2019-05-10T09:54:49.607Z,70.10
2019-05-10T09:57:17.470Z,70.30
2019-05-10T09:59:47.010Z,70.10
2019-05-10T10:02:18.259Z,71.10
2019-05-10T10:04:44.212Z,69.80
2019-05-10T10:07:11.851Z,69.80
2019-05-10T10:09:44.722Z,69.10
2019-05-10T10:12:08.892Z,65.30
2019-05-10T10:14:39.439Z,74.50
2019-05-10T10:17:08.103Z,77.30
2019-05-10T10:19:40.249Z,76.30
2019-05-10T10:22:05.772Z,75.80
2019-05-10T10:24:37.874Z,74.60
2019-05-10T10:27:03.697Z,77.90
2019-05-10T10:29:34.076Z,76.90
2019-05-10T10:32:00.762Z,75.80
2019-05-10T10:34:32.664Z,78.80
2019-05-10T10:36:58.090Z,75.80
2019-05-10T10:39:27.745Z,75.00
2019-05-10T10:41:57.148Z,73.50
2019-05-10T10:44:26.929Z,72.90
2019-05-10T10:46:54.038Z,75.80
2019-05-10T10:49:23.196Z,74.00
2019-05-10T10:51:51.067Z,75.40
2019-05-10T10:54:22.422Z,74.20
2019-05-10T10:56:48.346Z,76.40
2019-05-10T10:59:18.190Z,78.90
2019-05-10T11:01:50.357Z,78.10
2019-05-10T11:04:16.435Z,76.40
2019-05-10T11:06:44.403Z,74.00
2019-05-10T11:09:12.048Z,75.40
2019-05-10T11:11:44.416Z,73.10
2019-05-10T11:14:11.112Z,72.40
2019-05-10T11:16:38.471Z,73.70
2019-05-10T11:19:11.257Z,74.50
2019-05-10T11:21:35.799Z,74.70
2019-05-10T11:24:03.443Z,72.60
2019-05-10T11:26:32.775Z,72.30
2019-05-10T11:29:01.312Z,72.90
2019-05-10T11:31:31.223Z,75.60
2019-05-10T11:34:01.323Z,74.40
2019-05-10T11:36:27.903Z,70.20
2019-05-10T11:38:58.524Z,73.10
2019-05-10T11:41:25.204Z,75.90
2019-05-10T11:43:57.872Z,75.10
2019-05-10T11:46:22.243Z,72.80
2019-05-10T11:48:51.065Z,71.90
2019-05-10T11:51:21.066Z,75.10
2019-05-10T11:53:48.896Z,72.80
2019-05-10T11:56:17.617Z,68.40
2019-05-10T11:59:04.404Z,73.50
2019-05-10T12:01:19.143Z,72.30
2019-05-10T12:03:44.135Z,68.80
2019-05-10T12:06:12.284Z,71.40
2019-05-10T12:08:41.852Z,72.10
2019-05-10T12:11:25.466Z,73.30
2019-05-10T12:13:39.342Z,73.70
2019-05-10T12:16:07.014Z,72.10
2019-05-10T12:18:46.482Z,73.30
2019-05-10T12:21:11.119Z,73.80
2019-05-10T12:23:49.882Z,70.00
2019-05-10T12:28:37.304Z,70.70
2019-05-10T12:31:07.463Z,71.10
2019-05-10T12:33:34.348Z,66.20
2019-05-10T12:36:02.092Z,70.70
2019-05-10T12:38:31.727Z,71.50
2019-05-10T12:41:01.230Z,72.30
2019-05-10T12:43:30.789Z,73.60
2019-05-10T12:45:57.887Z,72.80
2019-05-10T12:48:25.868Z,70.20
2019-05-10T12:50:58.085Z,70.90
2019-05-10T12:53:22.899Z,69.30
2019-05-10T12:55:50.554Z,70.10
2019-05-10T12:58:21.355Z,69.90
2019-05-10T13:00:52.385Z,66.00
2019-05-10T13:03:19.347Z,66.00
2019-05-10T13:05:52.579Z,67.60
2019-05-10T13:08:16.975Z,66.90
2019-05-10T13:10:49.411Z,66.20
2019-05-10T13:13:17.547Z,69.30
2019-05-10T13:15:43.422Z,69.10
2019-05-10T13:18:11.099Z,68.70
2019-05-10T13:20:38.857Z,70.10
2019-05-10T13:23:09.982Z,72.10
2019-05-10T13:25:36.353Z,72.00
2019-05-10T13:28:10.705Z,71.30
2019-05-10T13:30:33.707Z,70.90
2019-05-10T13:33:01.371Z,73.40
2019-05-10T13:35:29.025Z,72.30
2019-05-10T13:38:03.751Z,72.90
2019-05-10T13:40:26.849Z,72.30
2019-05-10T13:42:54.511Z,74.20
2019-05-10T13:45:22.156Z,72.90
2019-05-10T13:47:49.827Z,73.20
2019-05-10T13:50:17.545Z,73.10
2019-05-10T13:52:45.481Z,72.00
2019-05-10T13:55:13.119Z,72.60
2019-05-10T13:57:40.788Z,73.50
2019-05-10T14:00:08.903Z,72.00
2019-05-10T14:02:36.568Z,72.20
2019-05-10T14:05:04.882Z,73.50
2019-05-10T14:07:32.889Z,74.10
2019-05-10T14:10:00.530Z,75.70
2019-05-10T14:12:28.192Z,75.10
2019-05-10T14:15:02.426Z,76.10
2019-05-10T14:17:25.234Z,73.30
2019-05-10T14:19:52.940Z,72.50
2019-05-10T14:22:20.627Z,71.00
2019-05-10T14:24:53.346Z,71.40
2019-05-10T14:27:17.631Z,72.70
2019-05-10T14:29:45.316Z,69.70
2019-05-10T14:32:12.944Z,68.80
2019-05-10T14:34:44.022Z,70.80
2019-05-10T14:37:14.291Z,72.90
2019-05-10T14:39:39.777Z,72.80
2019-05-10T14:42:09.407Z,73.40
2019-05-10T14:44:38.545Z,73.80
2019-05-10T14:47:06.223Z,76.70
2019-05-10T14:49:33.904Z,75.20
2019-05-10T14:52:01.540Z,74.20
2019-05-10T14:54:42.555Z,72.50
2019-05-10T14:56:58.591Z,74.40
2019-05-10T14:59:26.264Z,75.30
2019-05-10T15:01:53.903Z,74.20
2019-05-10T15:04:43.688Z,73.90
2019-05-10T15:06:50.948Z,74.00
2019-05-10T15:09:21.733Z,74.20
2019-05-10T15:11:47.984Z,73.80
2019-05-10T15:14:15.668Z,73.40
2019-05-10T15:16:43.367Z,73.90
2019-05-10T15:19:11.034Z,72.40
2019-05-10T15:21:38.673Z,73.60
2019-05-10T15:24:06.339Z,74.50
2019-05-10T15:26:37.261Z,74.00
2019-05-10T15:29:03.368Z,74.30
2019-05-10T15:31:31.067Z,74.30
2019-05-10T15:33:58.751Z,73.30
2019-05-10T15:36:29.552Z,73.20
2019-05-10T15:38:55.799Z,73.30
2019-05-10T15:41:24.062Z,73.00
2019-05-10T15:43:53.518Z,71.60
2019-05-10T15:46:23.356Z,73.40
2019-05-10T15:48:50.646Z,72.70
2019-05-10T15:51:18.579Z,71.60
2019-05-10T15:53:46.762Z,72.80
2019-05-10T15:56:14.536Z,72.60
2019-05-10T15:58:42.789Z,72.00
2019-05-10T16:01:14.097Z,73.40
2019-05-10T16:03:40.204Z,73.80
2019-05-10T16:06:07.872Z,73.70
2019-05-10T16:08:35.523Z,73.10
2019-05-10T16:11:03.192Z,72.20
2019-05-10T16:13:30.835Z,72.30
2019-05-10T16:15:59.564Z,72.00
2019-05-10T16:18:27.422Z,71.20
2019-05-10T16:20:55.089Z,72.80
2019-05-10T16:23:23.004Z,73.00
2019-05-10T16:25:50.670Z,72.10
2019-05-10T16:28:20.804Z,73.70
2019-05-10T16:30:48.039Z,73.90
2019-05-10T16:33:18.041Z,73.70
2019-05-10T16:35:49.704Z,72.80
2019-05-10T16:38:14.698Z,72.30
2019-05-10T16:40:44.449Z,73.50
2019-05-10T16:43:14.019Z,73.30
2019-05-10T16:45:41.374Z,72.40
2019-05-10T16:48:09.021Z,72.70
2019-05-10T16:50:36.691Z,71.90
2019-05-10T16:53:05.663Z,70.70
2019-05-10T16:55:35.607Z,71.00
2019-05-10T16:58:03.099Z,71.90
2019-05-10T17:00:30.831Z,73.30
2019-05-10T17:02:58.478Z,73.30
2019-05-10T17:05:26.154Z,72.60
2019-05-10T17:07:58.874Z,72.80
2019-05-10T17:10:26.938Z,73.30
2019-05-10T17:12:52.551Z,73.10
2019-05-10T17:15:20.231Z,71.90
2019-05-10T17:17:47.877Z,73.70
2019-05-10T17:20:16.073Z,75.30
2019-05-10T17:22:43.846Z,74.90
2019-05-10T17:25:13.046Z,75.30
2019-05-10T17:27:40.958Z,77.60
2019-05-10T17:30:08.695Z,74.40
2019-05-10T17:32:36.337Z,72.90
2019-05-10T17:35:06.695Z,73.40
2019-05-10T17:37:35.915Z,73.40
2019-05-10T17:40:10.281Z,75.20
2019-05-10T17:42:35.548Z,74.80
2019-05-10T17:45:08.214Z,75.90
2019-05-10T17:47:35.861Z,76.40
2019-05-10T17:50:05.006Z,79.80
2019-05-10T17:52:32.652Z,81.50
2019-05-10T17:55:00.319Z,83.10
2019-05-10T17:57:28.030Z,82.60
2019-05-10T17:59:55.736Z,83.70
2019-05-10T18:02:23.701Z,83.90
2019-05-10T18:04:51.339Z,83.20
2019-05-10T18:07:19.024Z,84.10
2019-05-10T18:09:46.654Z,85.20
2019-05-10T18:12:15.488Z,85.50
2019-05-10T18:14:43.958Z,85.30
2019-05-10T18:17:11.635Z,86.20
2019-05-10T18:19:39.280Z,87.00
2019-05-10T18:22:06.965Z,87.90
2019-05-10T18:24:36.396Z,87.60
2019-05-10T18:27:03.991Z,88.70
2019-05-10T18:30:14.544Z,89.60
2019-05-10T18:32:42.224Z,90.00
2019-05-10T18:35:14.569Z,90.40
2019-05-10T18:37:39.398Z,90.50
2019-05-10T18:40:07.750Z,90.60
2019-05-10T18:42:35.583Z,90.80
2019-05-10T18:45:04.184Z,91.10
2019-05-10T18:47:32.212Z,91.10
2019-05-10T18:50:00.200Z,91.20
2019-05-10T18:52:27.866Z,91.50
2019-05-10T18:54:55.512Z,91.80
2019-05-10T18:57:23.191Z,92.10
2019-05-10T18:59:50.841Z,92.00
2019-05-10T19:02:19.951Z,92.50
2019-05-10T19:04:52.082Z,92.40
2019-05-10T19:07:17.252Z,92.40
2019-05-10T19:09:44.917Z,92.80
2019-05-10T19:12:18.877Z,92.50
2019-05-10T19:14:41.984Z,92.60
2019-05-10T19:17:11.020Z,93.00
2019-05-10T19:19:42.042Z,93.00
2019-05-10T19:22:09.264Z,93.00
2019-05-10T19:24:37.560Z,92.90
2019-05-10T19:27:07.205Z,93.40
2019-05-10T19:29:38.532Z,93.20
2019-05-10T19:32:04.066Z,93.60
2019-05-10T19:34:31.755Z,93.10
2019-05-10T19:36:59.394Z,93.20
2019-05-10T19:39:27.371Z,93.40
2019-05-10T19:42:03.088Z,93.10
2019-05-10T19:44:24.421Z,93.10
2019-05-10T19:46:52.074Z,93.30
2019-05-10T19:49:19.751Z,93.30
2019-05-10T19:51:50.287Z,93.10
2019-05-10T19:54:19.611Z,93.30
2019-05-10T19:56:46.183Z,93.60
2019-05-10T19:59:13.879Z,93.80
2019-05-10T20:01:44.926Z,94.00
2019-05-10T20:04:10.932Z,94.10
2019-05-10T20:06:38.575Z,94.10
2019-05-10T20:09:06.639Z,94.10
2019-05-10T20:11:34.308Z,94.50
2019-05-10T20:14:01.976Z,94.60
2019-05-10T20:16:29.639Z,94.70
2019-05-10T20:18:57.639Z,94.40
2019-05-10T20:21:25.277Z,94.50
2019-05-10T20:23:52.975Z,94.60
2019-05-10T20:26:20.621Z,94.80
2019-05-10T20:28:48.315Z,94.80
2019-05-10T20:31:15.963Z,95.00
2019-05-10T20:33:43.642Z,94.90
2019-05-10T20:36:11.280Z,94.90
2019-05-10T20:38:38.955Z,95.00
2019-05-10T20:41:06.623Z,94.80
2019-05-10T20:43:34.291Z,94.90
2019-05-10T20:46:01.963Z,94.80
2019-05-10T20:48:29.634Z,94.70
2019-05-10T20:50:57.303Z,94.90
2019-05-10T20:53:24.995Z,95.00
2019-05-10T20:55:52.720Z,94.90
2019-05-10T20:58:20.664Z,95.10
2019-05-10T21:00:48.327Z,95.10
2019-05-10T21:03:15.989Z,95.00
2019-05-10T21:05:43.687Z,95.10
2019-05-10T21:08:16.948Z,95.10
2019-05-10T21:10:40.751Z,95.20
2019-05-10T21:13:08.390Z,94.90
2019-05-10T21:15:36.061Z,95.10
2019-05-10T21:18:03.712Z,95.20
2019-05-10T21:20:31.400Z,95.20
2019-05-10T21:22:59.332Z,95.30
2019-05-10T21:25:27.094Z,95.30
2019-05-10T21:27:54.768Z,95.60
2019-05-10T21:30:22.431Z,95.90
2019-05-10T21:32:50.085Z,96.30
2019-05-10T21:35:17.783Z,96.10
2019-05-10T21:37:45.432Z,96.00
2019-05-10T21:40:13.709Z,96.10
2019-05-10T21:42:41.377Z,95.80
2019-05-10T21:45:09.126Z,95.90
2019-05-10T21:47:50.614Z,96.10
2019-05-10T21:50:06.394Z,96.10
2019-05-10T21:52:34.053Z,96.00
2019-05-10T21:55:01.912Z,96.00
2019-05-10T21:57:29.738Z,96.10
2019-05-10T21:59:57.409Z,96.10
2019-05-10T22:02:25.064Z,96.20
2019-05-10T22:04:52.773Z,96.30
2019-05-10T22:07:20.474Z,96.20
2019-05-10T22:09:48.318Z,96.10
2019-05-10T22:12:16.027Z,96.00
2019-05-10T22:14:43.816Z,96.00
2019-05-10T22:17:11.606Z,96.10
2019-05-10T22:19:39.433Z,96.40
2019-05-10T22:22:07.140Z,96.00
2019-05-10T22:24:34.919Z,96.10
2019-05-10T22:27:02.980Z,95.80
2019-05-10T22:29:30.699Z,95.80
2019-05-10T22:31:58.471Z,95.90
2019-05-10T22:34:26.272Z,96.10
2019-05-10T22:36:54.043Z,96.20
2019-05-10T22:39:21.817Z,96.10
2019-05-10T22:41:52.868Z,96.10
2019-05-10T22:44:19.312Z,96.70
2019-05-10T22:46:47.365Z,96.30
2019-05-10T22:49:15.147Z,96.40
2019-05-10T22:51:42.828Z,96.70
2019-05-10T22:54:10.512Z,96.40
2019-05-10T22:56:38.258Z,96.70
2019-05-10T22:59:06.002Z,96.80
2019-05-10T23:01:34.046Z,96.80
2019-05-10T23:04:01.733Z,96.50
2019-05-10T23:06:29.440Z,96.50
2019-05-10T23:08:57.152Z,96.40
2019-05-10T23:11:24.959Z,96.60
2019-05-10T23:13:52.973Z,96.40
2019-05-10T23:16:20.683Z,96.50
2019-05-10T23:18:48.396Z,96.70
2019-05-10T23:21:16.179Z,96.90
2019-05-10T23:23:43.859Z,96.90
2019-05-10T23:26:11.598Z,97.00
2019-05-10T23:28:39.356Z,97.40
2019-05-10T23:31:07.067Z,96.70
2019-05-10T23:33:34.818Z,96.90
2019-05-10T23:36:02.546Z,97.20
2019-05-10T23:38:30.295Z,96.90
2019-05-10T23:40:58.013Z,96.70
2019-05-10T23:43:25.775Z,96.70
2019-05-10T23:45:53.559Z,95.90
2019-05-10T23:48:21.263Z,96.10
2019-05-10T23:50:49.038Z,96.40
2019-05-10T23:53:16.755Z,96.80
2019-05-10T23:55:44.467Z,96.70
2019-05-10T23:58:12.179Z,97.10
